sensor_id;sensor_type;location;lat;lon;timestamp;P1;durP1;ratioP1;P2;durP2;ratioP2
10088;SDS011;51898;49.864;8.550;2023-11-18T00:01:47;17.90;;;11.23;;
10088;SDS011;51898;49.864;8.550;2023-11-18T00:04:49;17.37;;;11.53;;
10088;SDS011;51898;49.864;8.550;2023-11-18T00:07:52;17.97;;;11.37;;
10088;SDS011;51898;49.864;8.550;2023-11-18T00:10:54;20.90;;;11.47;;
10088;SDS011;51898;49.864;8.550;2023-11-18T00:13:55;17.87;;;11.03;;
10088;SDS011;51898;49.864;8.550;2023-11-18T00:16:57;16.40;;;10.70;;
10088;SDS011;51898;49.864;8.550;2023-11-18T00:20:00;17.30;;;10.60;;
10088;SDS011;51898;49.864;8.550;2023-11-18T00:23:04;17.63;;;10.90;;
10088;SDS011;51898;49.864;8.550;2023-11-18T00:26:06;18.80;;;10.60;;
10088;SDS011;51898;49.864;8.550;2023-11-18T00:29:08;17.33;;;11.03;;
10088;SDS011;51898;49.864;8.550;2023-11-18T00:32:10;17.77;;;10.83;;
10088;SDS011;51898;49.864;8.550;2023-11-18T00:35:12;20.60;;;12.20;;
10088;SDS011;51898;49.864;8.550;2023-11-18T00:38:13;17.77;;;10.67;;
10088;SDS011;51898;49.864;8.550;2023-11-18T00:41:15;23.87;;;12.50;;
10088;SDS011;51898;49.864;8.550;2023-11-18T00:44:18;23.70;;;13.97;;
10088;SDS011;51898;49.864;8.550;2023-11-18T00:47:20;18.00;;;11.70;;
10088;SDS011;51898;49.864;8.550;2023-11-18T00:50:24;19.83;;;11.50;;
10088;SDS011;51898;49.864;8.550;2023-11-18T00:53:26;17.47;;;11.40;;
10088;SDS011;51898;49.864;8.550;2023-11-18T00:56:27;17.63;;;10.57;;
10088;SDS011;51898;49.864;8.550;2023-11-18T00:59:30;22.00;;;12.43;;
10088;SDS011;51898;49.864;8.550;2023-11-18T01:02:31;24.20;;;12.57;;
10088;SDS011;51898;49.864;8.550;2023-11-18T01:05:33;20.13;;;12.30;;
10088;SDS011;51898;49.864;8.550;2023-11-18T01:08:35;23.57;;;13.40;;
10088;SDS011;51898;49.864;8.550;2023-11-18T01:11:37;21.43;;;13.20;;
10088;SDS011;51898;49.864;8.550;2023-11-18T01:14:39;21.97;;;12.90;;
10088;SDS011;51898;49.864;8.550;2023-11-18T01:17:42;26.53;;;14.03;;
10088;SDS011;51898;49.864;8.550;2023-11-18T01:20:44;19.47;;;12.60;;
10088;SDS011;51898;49.864;8.550;2023-11-18T01:23:45;22.53;;;12.37;;
10088;SDS011;51898;49.864;8.550;2023-11-18T01:26:47;23.60;;;14.07;;
10088;SDS011;51898;49.864;8.550;2023-11-18T01:29:49;23.53;;;13.07;;
10088;SDS011;51898;49.864;8.550;2023-11-18T01:32:50;21.80;;;12.50;;
10088;SDS011;51898;49.864;8.550;2023-11-18T01:35:52;19.07;;;11.37;;
10088;SDS011;51898;49.864;8.550;2023-11-18T01:38:54;21.37;;;12.13;;
10088;SDS011;51898;49.864;8.550;2023-11-18T01:41:56;20.93;;;12.00;;
10088;SDS011;51898;49.864;8.550;2023-11-18T01:45:03;21.30;;;11.70;;
10088;SDS011;51898;49.864;8.550;2023-11-18T01:48:05;22.80;;;12.20;;
10088;SDS011;51898;49.864;8.550;2023-11-18T01:51:10;18.90;;;11.37;;
10088;SDS011;51898;49.864;8.550;2023-11-18T01:54:13;16.40;;;11.13;;
10088;SDS011;51898;49.864;8.550;2023-11-18T01:57:19;18.40;;;10.17;;
10088;SDS011;51898;49.864;8.550;2023-11-18T02:00:21;18.30;;;11.40;;
10088;SDS011;51898;49.864;8.550;2023-11-18T02:03:24;22.50;;;11.73;;
10088;SDS011;51898;49.864;8.550;2023-11-18T02:06:28;22.10;;;10.97;;
10088;SDS011;51898;49.864;8.550;2023-11-18T02:09:30;20.17;;;11.37;;
10088;SDS011;51898;49.864;8.550;2023-11-18T02:12:41;20.20;;;11.20;;
10088;SDS011;51898;49.864;8.550;2023-11-18T02:16:07;22.87;;;12.87;;
10088;SDS011;51898;49.864;8.550;2023-11-18T02:19:16;20.87;;;11.77;;
10088;SDS011;51898;49.864;8.550;2023-11-18T02:22:22;23.20;;;11.80;;
10088;SDS011;51898;49.864;8.550;2023-11-18T02:25:25;24.27;;;12.80;;
10088;SDS011;51898;49.864;8.550;2023-11-18T02:28:29;25.50;;;12.40;;
10088;SDS011;51898;49.864;8.550;2023-11-18T02:31:33;21.30;;;12.50;;
10088;SDS011;51898;49.864;8.550;2023-11-18T02:34:40;25.57;;;12.77;;
10088;SDS011;51898;49.864;8.550;2023-11-18T02:37:46;23.03;;;12.43;;
10088;SDS011;51898;49.864;8.550;2023-11-18T02:40:51;18.60;;;11.13;;
10088;SDS011;51898;49.864;8.550;2023-11-18T02:43:58;21.27;;;11.60;;
10088;SDS011;51898;49.864;8.550;2023-11-18T02:46:59;20.27;;;10.33;;
10088;SDS011;51898;49.864;8.550;2023-11-18T02:50:02;18.23;;;10.00;;
10088;SDS011;51898;49.864;8.550;2023-11-18T02:53:07;19.80;;;10.40;;
10088;SDS011;51898;49.864;8.550;2023-11-18T02:56:10;21.87;;;11.13;;
10088;SDS011;51898;49.864;8.550;2023-11-18T02:59:12;21.70;;;11.00;;
10088;SDS011;51898;49.864;8.550;2023-11-18T03:02:14;19.70;;;11.37;;
10088;SDS011;51898;49.864;8.550;2023-11-18T03:05:16;20.97;;;12.03;;
10088;SDS011;51898;49.864;8.550;2023-11-18T03:08:19;20.57;;;11.00;;
10088;SDS011;51898;49.864;8.550;2023-11-18T03:11:20;23.57;;;11.97;;
10088;SDS011;51898;49.864;8.550;2023-11-18T03:14:23;20.80;;;10.80;;
10088;SDS011;51898;49.864;8.550;2023-11-18T03:17:25;17.70;;;10.60;;
10088;SDS011;51898;49.864;8.550;2023-11-18T03:20:27;20.40;;;11.60;;
10088;SDS011;51898;49.864;8.550;2023-11-18T03:23:30;19.20;;;10.60;;
10088;SDS011;51898;49.864;8.550;2023-11-18T03:26:31;21.30;;;10.53;;
10088;SDS011;51898;49.864;8.550;2023-11-18T03:29:33;25.13;;;12.60;;
10088;SDS011;51898;49.864;8.550;2023-11-18T03:32:35;23.60;;;11.70;;
10088;SDS011;51898;49.864;8.550;2023-11-18T03:35:38;22.53;;;11.17;;
10088;SDS011;51898;49.864;8.550;2023-11-18T03:38:39;19.10;;;10.50;;
10088;SDS011;51898;49.864;8.550;2023-11-18T03:41:41;19.13;;;11.80;;
10088;SDS011;51898;49.864;8.550;2023-11-18T03:44:45;23.00;;;12.33;;
10088;SDS011;51898;49.864;8.550;2023-11-18T03:47:48;22.43;;;12.07;;
10088;SDS011;51898;49.864;8.550;2023-11-18T03:50:51;25.00;;;12.70;;
10088;SDS011;51898;49.864;8.550;2023-11-18T03:53:55;20.13;;;11.53;;
10088;SDS011;51898;49.864;8.550;2023-11-18T03:56:57;21.80;;;11.63;;
10088;SDS011;51898;49.864;8.550;2023-11-18T03:59:58;25.80;;;12.90;;
10088;SDS011;51898;49.864;8.550;2023-11-18T04:03:00;22.97;;;12.37;;
10088;SDS011;51898;49.864;8.550;2023-11-18T04:06:02;23.07;;;13.00;;
10088;SDS011;51898;49.864;8.550;2023-11-18T04:09:04;22.20;;;12.03;;
10088;SDS011;51898;49.864;8.550;2023-11-18T04:12:07;26.17;;;12.30;;
10088;SDS011;51898;49.864;8.550;2023-11-18T04:15:09;26.63;;;13.97;;
10088;SDS011;51898;49.864;8.550;2023-11-18T04:18:12;26.90;;;14.00;;
10088;SDS011;51898;49.864;8.550;2023-11-18T04:21:14;24.50;;;12.97;;
10088;SDS011;51898;49.864;8.550;2023-11-18T04:24:16;25.80;;;12.13;;
10088;SDS011;51898;49.864;8.550;2023-11-18T04:27:18;27.60;;;12.83;;
10088;SDS011;51898;49.864;8.550;2023-11-18T04:30:20;22.13;;;11.63;;
10088;SDS011;51898;49.864;8.550;2023-11-18T04:33:22;20.50;;;11.10;;
10088;SDS011;51898;49.864;8.550;2023-11-18T04:36:25;21.53;;;12.07;;
10088;SDS011;51898;49.864;8.550;2023-11-18T04:39:27;25.03;;;13.10;;
10088;SDS011;51898;49.864;8.550;2023-11-18T04:42:31;26.63;;;13.40;;
10088;SDS011;51898;49.864;8.550;2023-11-18T04:45:32;29.27;;;14.37;;
10088;SDS011;51898;49.864;8.550;2023-11-18T04:48:35;26.93;;;14.23;;
10088;SDS011;51898;49.864;8.550;2023-11-18T04:51:41;24.63;;;12.17;;
10088;SDS011;51898;49.864;8.550;2023-11-18T04:54:43;22.70;;;11.00;;
10088;SDS011;51898;49.864;8.550;2023-11-18T04:57:45;19.20;;;9.80;;
10088;SDS011;51898;49.864;8.550;2023-11-18T05:00:47;31.37;;;11.73;;
10088;SDS011;51898;49.864;8.550;2023-11-18T05:03:49;63.40;;;18.13;;
10088;SDS011;51898;49.864;8.550;2023-11-18T05:06:51;97.63;;;19.00;;
10088;SDS011;51898;49.864;8.550;2023-11-18T05:09:52;162.37;;;21.40;;
10088;SDS011;51898;49.864;8.550;2023-11-18T05:12:54;152.67;;;19.20;;
10088;SDS011;51898;49.864;8.550;2023-11-18T05:15:59;176.10;;;22.33;;
10088;SDS011;51898;49.864;8.550;2023-11-18T05:19:01;88.33;;;13.40;;
10088;SDS011;51898;49.864;8.550;2023-11-18T05:22:03;59.57;;;12.13;;
10088;SDS011;51898;49.864;8.550;2023-11-18T05:25:05;125.30;;;17.63;;
10088;SDS011;51898;49.864;8.550;2023-11-18T05:28:07;79.53;;;14.77;;
10088;SDS011;51898;49.864;8.550;2023-11-18T05:31:12;73.63;;;14.47;;
10088;SDS011;51898;49.864;8.550;2023-11-18T05:34:14;68.20;;;13.80;;
10088;SDS011;51898;49.864;8.550;2023-11-18T05:37:16;66.27;;;14.50;;
10088;SDS011;51898;49.864;8.550;2023-11-18T05:40:19;57.13;;;14.03;;
10088;SDS011;51898;49.864;8.550;2023-11-18T05:43:24;64.17;;;14.80;;
10088;SDS011;51898;49.864;8.550;2023-11-18T05:46:29;31.40;;;13.37;;
10088;SDS011;51898;49.864;8.550;2023-11-18T05:49:31;28.70;;;12.43;;
10088;SDS011;51898;49.864;8.550;2023-11-18T05:52:34;34.93;;;12.57;;
10088;SDS011;51898;49.864;8.550;2023-11-18T05:55:35;27.10;;;13.13;;
10088;SDS011;51898;49.864;8.550;2023-11-18T05:58:37;19.50;;;11.87;;
10088;SDS011;51898;49.864;8.550;2023-11-18T06:01:44;21.50;;;12.60;;
10088;SDS011;51898;49.864;8.550;2023-11-18T06:04:48;18.17;;;10.90;;
10088;SDS011;51898;49.864;8.550;2023-11-18T06:07:50;19.83;;;12.10;;
10088;SDS011;51898;49.864;8.550;2023-11-18T06:10:52;20.17;;;12.40;;
10088;SDS011;51898;49.864;8.550;2023-11-18T06:13:57;18.83;;;11.20;;
10088;SDS011;51898;49.864;8.550;2023-11-18T06:16:59;19.43;;;12.20;;
10088;SDS011;51898;49.864;8.550;2023-11-18T06:20:01;21.37;;;12.63;;
10088;SDS011;51898;49.864;8.550;2023-11-18T06:23:08;19.93;;;11.77;;
10088;SDS011;51898;49.864;8.550;2023-11-18T06:26:10;20.63;;;12.60;;
10088;SDS011;51898;49.864;8.550;2023-11-18T06:29:12;20.07;;;11.93;;
10088;SDS011;51898;49.864;8.550;2023-11-18T06:32:16;20.07;;;12.03;;
10088;SDS011;51898;49.864;8.550;2023-11-18T06:35:18;21.87;;;14.20;;
10088;SDS011;51898;49.864;8.550;2023-11-18T06:38:21;206.70;;;79.50;;
10088;SDS011;51898;49.864;8.550;2023-11-18T06:41:23;28.73;;;16.90;;
10088;SDS011;51898;49.864;8.550;2023-11-18T06:44:27;32.20;;;17.17;;
10088;SDS011;51898;49.864;8.550;2023-11-18T06:47:29;31.33;;;16.27;;
10088;SDS011;51898;49.864;8.550;2023-11-18T06:50:33;27.53;;;15.77;;
10088;SDS011;51898;49.864;8.550;2023-11-18T06:53:36;30.37;;;16.63;;
10088;SDS011;51898;49.864;8.550;2023-11-18T06:56:38;30.07;;;15.60;;
10088;SDS011;51898;49.864;8.550;2023-11-18T06:59:44;27.97;;;14.87;;
10088;SDS011;51898;49.864;8.550;2023-11-18T07:02:46;31.73;;;15.40;;
10088;SDS011;51898;49.864;8.550;2023-11-18T07:05:48;28.10;;;14.73;;
10088;SDS011;51898;49.864;8.550;2023-11-18T07:08:50;30.50;;;15.40;;
10088;SDS011;51898;49.864;8.550;2023-11-18T07:11:52;40.23;;;20.27;;
10088;SDS011;51898;49.864;8.550;2023-11-18T07:14:54;30.30;;;17.43;;
10088;SDS011;51898;49.864;8.550;2023-11-18T07:17:56;35.67;;;16.27;;
10088;SDS011;51898;49.864;8.550;2023-11-18T07:21:01;31.80;;;15.17;;
10088;SDS011;51898;49.864;8.550;2023-11-18T07:24:06;33.30;;;15.97;;
10088;SDS011;51898;49.864;8.550;2023-11-18T07:27:08;30.37;;;15.00;;
10088;SDS011;51898;49.864;8.550;2023-11-18T07:30:12;35.00;;;15.60;;
10088;SDS011;51898;49.864;8.550;2023-11-18T07:33:17;40.00;;;18.00;;
10088;SDS011;51898;49.864;8.550;2023-11-18T07:36:20;31.90;;;15.73;;
10088;SDS011;51898;49.864;8.550;2023-11-18T07:39:22;45.57;;;17.43;;
10088;SDS011;51898;49.864;8.550;2023-11-18T07:42:31;35.67;;;16.23;;
10088;SDS011;51898;49.864;8.550;2023-11-18T07:45:36;33.20;;;16.30;;
10088;SDS011;51898;49.864;8.550;2023-11-18T07:48:39;34.87;;;17.50;;
10088;SDS011;51898;49.864;8.550;2023-11-18T07:51:42;37.60;;;17.70;;
10088;SDS011;51898;49.864;8.550;2023-11-18T07:54:43;47.77;;;19.20;;
10088;SDS011;51898;49.864;8.550;2023-11-18T07:57:45;36.77;;;18.40;;
10088;SDS011;51898;49.864;8.550;2023-11-18T08:00:47;38.90;;;18.73;;
10088;SDS011;51898;49.864;8.550;2023-11-18T08:03:50;41.47;;;20.57;;
10088;SDS011;51898;49.864;8.550;2023-11-18T08:06:54;40.10;;;20.00;;
10088;SDS011;51898;49.864;8.550;2023-11-18T08:09:56;42.77;;;18.23;;
10088;SDS011;51898;49.864;8.550;2023-11-18T08:12:58;43.00;;;20.00;;
10088;SDS011;51898;49.864;8.550;2023-11-18T08:16:00;49.03;;;22.37;;
10088;SDS011;51898;49.864;8.550;2023-11-18T08:19:02;42.17;;;21.40;;
10088;SDS011;51898;49.864;8.550;2023-11-18T08:22:04;46.83;;;22.50;;
10088;SDS011;51898;49.864;8.550;2023-11-18T08:25:07;46.67;;;22.87;;
10088;SDS011;51898;49.864;8.550;2023-11-18T08:28:09;52.17;;;22.17;;
10088;SDS011;51898;49.864;8.550;2023-11-18T08:31:13;49.33;;;23.20;;
10088;SDS011;51898;49.864;8.550;2023-11-18T08:34:18;47.20;;;22.50;;
10088;SDS011;51898;49.864;8.550;2023-11-18T08:37:20;52.67;;;22.87;;
10088;SDS011;51898;49.864;8.550;2023-11-18T08:40:22;50.50;;;21.83;;
10088;SDS011;51898;49.864;8.550;2023-11-18T08:43:24;54.80;;;23.27;;
10088;SDS011;51898;49.864;8.550;2023-11-18T08:46:26;52.03;;;25.03;;
10088;SDS011;51898;49.864;8.550;2023-11-18T08:49:28;55.90;;;24.57;;
10088;SDS011;51898;49.864;8.550;2023-11-18T08:52:35;54.70;;;24.10;;
10088;SDS011;51898;49.864;8.550;2023-11-18T08:55:38;50.43;;;23.50;;
10088;SDS011;51898;49.864;8.550;2023-11-18T08:58:42;39.80;;;20.80;;
10088;SDS011;51898;49.864;8.550;2023-11-18T09:01:46;37.53;;;19.80;;
10088;SDS011;51898;49.864;8.550;2023-11-18T09:04:50;47.20;;;21.47;;
10088;SDS011;51898;49.864;8.550;2023-11-18T09:07:53;42.63;;;20.30;;
10088;SDS011;51898;49.864;8.550;2023-11-18T09:10:59;32.63;;;17.47;;
10088;SDS011;51898;49.864;8.550;2023-11-18T09:14:01;39.60;;;16.80;;
10088;SDS011;51898;49.864;8.550;2023-11-18T09:17:05;36.23;;;17.87;;
10088;SDS011;51898;49.864;8.550;2023-11-18T09:20:08;34.50;;;17.13;;
10088;SDS011;51898;49.864;8.550;2023-11-18T09:23:12;30.83;;;16.40;;
10088;SDS011;51898;49.864;8.550;2023-11-18T09:26:17;26.83;;;14.90;;
10088;SDS011;51898;49.864;8.550;2023-11-18T09:29:19;26.63;;;14.23;;
10088;SDS011;51898;49.864;8.550;2023-11-18T09:32:25;24.83;;;15.10;;
10088;SDS011;51898;49.864;8.550;2023-11-18T09:35:27;24.20;;;13.50;;
10088;SDS011;51898;49.864;8.550;2023-11-18T09:38:31;22.20;;;13.10;;
10088;SDS011;51898;49.864;8.550;2023-11-18T09:41:34;27.23;;;14.60;;
10088;SDS011;51898;49.864;8.550;2023-11-18T09:44:36;25.57;;;13.17;;
10088;SDS011;51898;49.864;8.550;2023-11-18T09:47:41;28.20;;;13.80;;
10088;SDS011;51898;49.864;8.550;2023-11-18T09:50:44;23.37;;;13.23;;
10088;SDS011;51898;49.864;8.550;2023-11-18T09:53:53;24.03;;;14.30;;
10088;SDS011;51898;49.864;8.550;2023-11-18T09:57:19;25.77;;;14.50;;
10088;SDS011;51898;49.864;8.550;2023-11-18T10:00:41;24.00;;;14.40;;
10088;SDS011;51898;49.864;8.550;2023-11-18T10:03:43;21.27;;;13.20;;
10088;SDS011;51898;49.864;8.550;2023-11-18T10:06:47;23.33;;;14.20;;
10088;SDS011;51898;49.864;8.550;2023-11-18T10:09:51;24.43;;;13.77;;
10088;SDS011;51898;49.864;8.550;2023-11-18T10:12:58;21.73;;;13.47;;
10088;SDS011;51898;49.864;8.550;2023-11-18T10:16:02;21.63;;;12.87;;
10088;SDS011;51898;49.864;8.550;2023-11-18T10:19:06;22.07;;;13.27;;
10088;SDS011;51898;49.864;8.550;2023-11-18T10:22:20;21.83;;;14.50;;
10088;SDS011;51898;49.864;8.550;2023-11-18T10:25:24;16.20;;;11.53;;
10088;SDS011;51898;49.864;8.550;2023-11-18T10:28:33;18.23;;;11.17;;
10088;SDS011;51898;49.864;8.550;2023-11-18T10:31:37;20.77;;;12.17;;
10088;SDS011;51898;49.864;8.550;2023-11-18T10:34:46;19.43;;;11.87;;
10088;SDS011;51898;49.864;8.550;2023-11-18T10:37:51;19.87;;;12.33;;
10088;SDS011;51898;49.864;8.550;2023-11-18T10:40:53;20.60;;;12.97;;
10088;SDS011;51898;49.864;8.550;2023-11-18T10:44:04;21.33;;;11.93;;
10088;SDS011;51898;49.864;8.550;2023-11-18T10:47:15;19.50;;;12.67;;
10088;SDS011;51898;49.864;8.550;2023-11-18T10:50:19;18.27;;;11.50;;
10088;SDS011;51898;49.864;8.550;2023-11-18T10:53:23;22.17;;;12.10;;
10088;SDS011;51898;49.864;8.550;2023-11-18T10:56:27;19.70;;;11.67;;
10088;SDS011;51898;49.864;8.550;2023-11-18T10:59:30;21.77;;;12.83;;
10088;SDS011;51898;49.864;8.550;2023-11-18T11:02:32;20.67;;;12.40;;
10088;SDS011;51898;49.864;8.550;2023-11-18T11:05:39;18.10;;;11.63;;
10088;SDS011;51898;49.864;8.550;2023-11-18T11:08:44;17.43;;;11.47;;
10088;SDS011;51898;49.864;8.550;2023-11-18T11:11:46;21.17;;;12.57;;
10088;SDS011;51898;49.864;8.550;2023-11-18T11:14:54;19.70;;;12.83;;
10088;SDS011;51898;49.864;8.550;2023-11-18T11:18:05;23.60;;;11.77;;
10088;SDS011;51898;49.864;8.550;2023-11-18T11:21:13;18.77;;;13.20;;
10088;SDS011;51898;49.864;8.550;2023-11-18T11:24:20;16.50;;;11.93;;
10088;SDS011;51898;49.864;8.550;2023-11-18T11:27:41;18.90;;;13.30;;
10088;SDS011;51898;49.864;8.550;2023-11-18T11:34:33;14.83;;;10.63;;
10088;SDS011;51898;49.864;8.550;2023-11-18T11:37:38;16.53;;;10.97;;
10088;SDS011;51898;49.864;8.550;2023-11-18T11:40:43;14.73;;;10.90;;
10088;SDS011;51898;49.864;8.550;2023-11-18T11:43:48;16.50;;;11.47;;
10088;SDS011;51898;49.864;8.550;2023-11-18T11:46:51;19.93;;;11.27;;
10088;SDS011;51898;49.864;8.550;2023-11-18T11:50:00;15.50;;;11.60;;
10088;SDS011;51898;49.864;8.550;2023-11-18T11:53:15;17.90;;;12.13;;
10088;SDS011;51898;49.864;8.550;2023-11-18T11:56:20;14.90;;;11.53;;
10088;SDS011;51898;49.864;8.550;2023-11-18T12:02:48;14.83;;;10.77;;
10088;SDS011;51898;49.864;8.550;2023-11-18T12:05:56;17.57;;;10.13;;
10088;SDS011;51898;49.864;8.550;2023-11-18T12:09:14;15.70;;;11.60;;
10088;SDS011;51898;49.864;8.550;2023-11-18T12:12:21;18.10;;;12.17;;
10088;SDS011;51898;49.864;8.550;2023-11-18T12:23:02;19.10;;;11.57;;
10088;SDS011;51898;49.864;8.550;2023-11-18T12:29:41;18.77;;;12.47;;
10088;SDS011;51898;49.864;8.550;2023-11-18T12:43:15;12.40;;;8.73;;
10088;SDS011;51898;49.864;8.550;2023-11-18T12:49:46;13.20;;;9.53;;
10088;SDS011;51898;49.864;8.550;2023-11-18T12:52:55;15.50;;;8.63;;
10088;SDS011;51898;49.864;8.550;2023-11-18T12:55:58;13.07;;;9.63;;
10088;SDS011;51898;49.864;8.550;2023-11-18T12:59:02;10.03;;;7.93;;
10088;SDS011;51898;49.864;8.550;2023-11-18T13:02:07;11.17;;;8.47;;
10088;SDS011;51898;49.864;8.550;2023-11-18T13:05:20;13.03;;;8.17;;
10088;SDS011;51898;49.864;8.550;2023-11-18T13:08:22;11.93;;;7.97;;
10088;SDS011;51898;49.864;8.550;2023-11-18T13:11:25;10.27;;;7.67;;
10088;SDS011;51898;49.864;8.550;2023-11-18T13:14:28;11.50;;;8.23;;
10088;SDS011;51898;49.864;8.550;2023-11-18T13:17:37;12.43;;;7.60;;
10088;SDS011;51898;49.864;8.550;2023-11-18T13:20:39;10.07;;;7.97;;
10088;SDS011;51898;49.864;8.550;2023-11-18T13:23:40;10.10;;;7.63;;
10088;SDS011;51898;49.864;8.550;2023-11-18T13:26:43;8.93;;;7.00;;
10088;SDS011;51898;49.864;8.550;2023-11-18T13:29:48;10.83;;;6.83;;
10088;SDS011;51898;49.864;8.550;2023-11-18T13:32:54;9.47;;;7.40;;
10088;SDS011;51898;49.864;8.550;2023-11-18T13:35:57;9.63;;;6.90;;
10088;SDS011;51898;49.864;8.550;2023-11-18T13:39:00;9.10;;;6.43;;
10088;SDS011;51898;49.864;8.550;2023-11-18T13:45:40;9.30;;;6.70;;
10088;SDS011;51898;49.864;8.550;2023-11-18T13:48:47;10.07;;;6.20;;
10088;SDS011;51898;49.864;8.550;2023-11-18T13:51:50;9.17;;;5.87;;
10088;SDS011;51898;49.864;8.550;2023-11-18T13:54:52;8.73;;;5.87;;
10088;SDS011;51898;49.864;8.550;2023-11-18T13:57:58;7.10;;;5.20;;
10088;SDS011;51898;49.864;8.550;2023-11-18T14:01:00;13.47;;;5.60;;
10088;SDS011;51898;49.864;8.550;2023-11-18T14:04:02;7.83;;;5.70;;
10088;SDS011;51898;49.864;8.550;2023-11-18T14:07:05;12.60;;;7.20;;
10088;SDS011;51898;49.864;8.550;2023-11-18T14:10:07;7.20;;;5.47;;
10088;SDS011;51898;49.864;8.550;2023-11-18T14:13:14;8.97;;;5.30;;
10088;SDS011;51898;49.864;8.550;2023-11-18T14:16:18;5.60;;;4.67;;
10088;SDS011;51898;49.864;8.550;2023-11-18T14:19:22;8.37;;;4.70;;
10088;SDS011;51898;49.864;8.550;2023-11-18T14:22:25;7.37;;;4.00;;
10088;SDS011;51898;49.864;8.550;2023-11-18T14:25:27;8.50;;;4.13;;
10088;SDS011;51898;49.864;8.550;2023-11-18T14:28:29;7.80;;;4.10;;
10088;SDS011;51898;49.864;8.550;2023-11-18T14:31:32;5.90;;;4.33;;
10088;SDS011;51898;49.864;8.550;2023-11-18T14:34:35;12.33;;;5.20;;
10088;SDS011;51898;49.864;8.550;2023-11-18T14:37:39;5.00;;;4.23;;
10088;SDS011;51898;49.864;8.550;2023-11-18T14:40:45;6.67;;;3.50;;
10088;SDS011;51898;49.864;8.550;2023-11-18T14:43:49;6.67;;;4.50;;
10088;SDS011;51898;49.864;8.550;2023-11-18T14:46:51;5.27;;;4.47;;
10088;SDS011;51898;49.864;8.550;2023-11-18T14:49:53;5.80;;;3.97;;
10088;SDS011;51898;49.864;8.550;2023-11-18T14:52:54;6.97;;;4.40;;
10088;SDS011;51898;49.864;8.550;2023-11-18T14:56:04;5.33;;;4.30;;
10088;SDS011;51898;49.864;8.550;2023-11-18T14:59:06;6.43;;;3.80;;
10088;SDS011;51898;49.864;8.550;2023-11-18T15:02:09;7.60;;;4.30;;
10088;SDS011;51898;49.864;8.550;2023-11-18T15:05:11;3.67;;;3.20;;
10088;SDS011;51898;49.864;8.550;2023-11-18T15:08:13;5.20;;;3.23;;
10088;SDS011;51898;49.864;8.550;2023-11-18T15:11:22;8.10;;;3.63;;
10088;SDS011;51898;49.864;8.550;2023-11-18T15:14:24;6.53;;;5.00;;
10088;SDS011;51898;49.864;8.550;2023-11-18T15:17:26;7.33;;;3.90;;
10088;SDS011;51898;49.864;8.550;2023-11-18T15:20:44;5.10;;;3.60;;
10088;SDS011;51898;49.864;8.550;2023-11-18T15:23:48;8.03;;;4.00;;
10088;SDS011;51898;49.864;8.550;2023-11-18T15:26:51;6.80;;;3.63;;
10088;SDS011;51898;49.864;8.550;2023-11-18T15:29:53;5.40;;;4.00;;
10088;SDS011;51898;49.864;8.550;2023-11-18T15:32:54;7.93;;;4.67;;
10088;SDS011;51898;49.864;8.550;2023-11-18T15:35:57;9.00;;;4.47;;
10088;SDS011;51898;49.864;8.550;2023-11-18T15:38:59;6.07;;;3.70;;
10088;SDS011;51898;49.864;8.550;2023-11-18T15:42:04;7.97;;;4.40;;
10088;SDS011;51898;49.864;8.550;2023-11-18T15:45:10;8.90;;;3.97;;
10088;SDS011;51898;49.864;8.550;2023-11-18T15:48:13;7.60;;;4.00;;
10088;SDS011;51898;49.864;8.550;2023-11-18T15:51:16;11.33;;;4.60;;
10088;SDS011;51898;49.864;8.550;2023-11-18T15:54:17;6.33;;;4.53;;
10088;SDS011;51898;49.864;8.550;2023-11-18T15:57:23;5.60;;;4.37;;
10088;SDS011;51898;49.864;8.550;2023-11-18T16:00:25;12.40;;;4.40;;
10088;SDS011;51898;49.864;8.550;2023-11-18T16:03:28;5.30;;;4.00;;
10088;SDS011;51898;49.864;8.550;2023-11-18T16:06:30;5.87;;;4.40;;
10088;SDS011;51898;49.864;8.550;2023-11-18T16:09:32;9.60;;;4.57;;
10088;SDS011;51898;49.864;8.550;2023-11-18T16:12:33;12.97;;;4.77;;
10088;SDS011;51898;49.864;8.550;2023-11-18T16:15:35;7.80;;;4.30;;
10088;SDS011;51898;49.864;8.550;2023-11-18T16:18:37;6.20;;;3.80;;
10088;SDS011;51898;49.864;8.550;2023-11-18T16:21:39;7.50;;;4.43;;
10088;SDS011;51898;49.864;8.550;2023-11-18T16:24:40;12.83;;;5.63;;
10088;SDS011;51898;49.864;8.550;2023-11-18T16:27:42;8.00;;;4.77;;
10088;SDS011;51898;49.864;8.550;2023-11-18T16:30:45;5.73;;;4.63;;
10088;SDS011;51898;49.864;8.550;2023-11-18T16:33:46;9.30;;;5.10;;
10088;SDS011;51898;49.864;8.550;2023-11-18T16:36:49;7.47;;;5.00;;
10088;SDS011;51898;49.864;8.550;2023-11-18T16:39:51;8.67;;;5.03;;
10088;SDS011;51898;49.864;8.550;2023-11-18T16:42:53;7.87;;;5.03;;
10088;SDS011;51898;49.864;8.550;2023-11-18T16:46:01;8.63;;;5.10;;
10088;SDS011;51898;49.864;8.550;2023-11-18T16:49:02;7.63;;;5.33;;
10088;SDS011;51898;49.864;8.550;2023-11-18T16:52:04;9.83;;;5.60;;
10088;SDS011;51898;49.864;8.550;2023-11-18T16:55:07;4.80;;;4.30;;
10088;SDS011;51898;49.864;8.550;2023-11-18T16:58:10;8.23;;;4.70;;
10088;SDS011;51898;49.864;8.550;2023-11-18T17:01:12;5.27;;;4.30;;
10088;SDS011;51898;49.864;8.550;2023-11-18T17:04:14;7.10;;;4.30;;
10088;SDS011;51898;49.864;8.550;2023-11-18T17:07:17;5.90;;;3.57;;
10088;SDS011;51898;49.864;8.550;2023-11-18T17:10:19;4.83;;;3.50;;
10088;SDS011;51898;49.864;8.550;2023-11-18T17:13:23;4.70;;;3.93;;
10088;SDS011;51898;49.864;8.550;2023-11-18T17:16:27;4.87;;;3.47;;
10088;SDS011;51898;49.864;8.550;2023-11-18T17:19:28;8.53;;;3.87;;
10088;SDS011;51898;49.864;8.550;2023-11-18T17:22:30;4.10;;;3.20;;
10088;SDS011;51898;49.864;8.550;2023-11-18T17:25:32;4.73;;;3.20;;
10088;SDS011;51898;49.864;8.550;2023-11-18T17:28:33;4.50;;;3.37;;
10088;SDS011;51898;49.864;8.550;2023-11-18T17:31:36;4.20;;;3.77;;
10088;SDS011;51898;49.864;8.550;2023-11-18T17:34:38;5.50;;;3.80;;
10088;SDS011;51898;49.864;8.550;2023-11-18T17:37:43;9.57;;;4.60;;
10088;SDS011;51898;49.864;8.550;2023-11-18T17:40:46;4.43;;;3.97;;
10088;SDS011;51898;49.864;8.550;2023-11-18T17:43:48;4.67;;;4.20;;
10088;SDS011;51898;49.864;8.550;2023-11-18T17:46:50;7.20;;;4.03;;
10088;SDS011;51898;49.864;8.550;2023-11-18T17:49:52;6.20;;;3.63;;
10088;SDS011;51898;49.864;8.550;2023-11-18T17:52:54;5.93;;;4.23;;
10088;SDS011;51898;49.864;8.550;2023-11-18T17:55:58;5.80;;;3.90;;
10088;SDS011;51898;49.864;8.550;2023-11-18T17:59:00;4.70;;;4.07;;
10088;SDS011;51898;49.864;8.550;2023-11-18T18:02:02;4.90;;;4.00;;
10088;SDS011;51898;49.864;8.550;2023-11-18T18:05:03;4.77;;;4.20;;
10088;SDS011;51898;49.864;8.550;2023-11-18T18:08:06;7.00;;;3.60;;
10088;SDS011;51898;49.864;8.550;2023-11-18T18:11:08;5.50;;;3.50;;
10088;SDS011;51898;49.864;8.550;2023-11-18T18:14:10;5.60;;;3.43;;
10088;SDS011;51898;49.864;8.550;2023-11-18T18:17:12;6.30;;;3.83;;
10088;SDS011;51898;49.864;8.550;2023-11-18T18:20:13;5.40;;;4.10;;
10088;SDS011;51898;49.864;8.550;2023-11-18T18:23:15;5.53;;;3.60;;
10088;SDS011;51898;49.864;8.550;2023-11-18T18:26:17;6.13;;;3.10;;
10088;SDS011;51898;49.864;8.550;2023-11-18T18:29:19;5.73;;;3.67;;
10088;SDS011;51898;49.864;8.550;2023-11-18T18:32:21;3.87;;;2.50;;
10088;SDS011;51898;49.864;8.550;2023-11-18T18:35:24;4.10;;;3.20;;
10088;SDS011;51898;49.864;8.550;2023-11-18T18:38:27;4.07;;;3.37;;